sensor_id;sensor_type;location;lat;lon;timestamp;P1;durP1;ratioP1;P2;durP2;ratioP2
40459;SDS011;26164;51.138;16.952;2024-01-16T00:00:59;11.93;;;5.35;;
40459;SDS011;26164;51.138;16.952;2024-01-16T00:03:59;12.80;;;6.25;;
40459;SDS011;26164;51.138;16.952;2024-01-16T00:06:49;13.20;;;7.10;;
40459;SDS011;26164;51.138;16.952;2024-01-16T00:09:46;13.43;;;7.05;;
40459;SDS011;26164;51.138;16.952;2024-01-16T00:12:35;20.75;;;10.77;;
40459;SDS011;26164;51.138;16.952;2024-01-16T00:15:35;5.47;;;2.80;;
40459;SDS011;26164;51.138;16.952;2024-01-16T00:19:22;4.82;;;2.15;;
40459;SDS011;26164;51.138;16.952;2024-01-16T00:22:35;9.63;;;1.98;;
40459;SDS011;26164;51.138;16.952;2024-01-16T00:26:02;3.95;;;1.15;;
40459;SDS011;26164;51.138;16.952;2024-01-16T00:28:52;3.83;;;1.42;;
40459;SDS011;26164;51.138;16.952;2024-01-16T00:32:30;5.38;;;1.67;;
40459;SDS011;26164;51.138;16.952;2024-01-16T00:35:39;6.78;;;1.38;;
40459;SDS011;26164;51.138;16.952;2024-01-16T00:44:40;6.18;;;2.00;;
40459;SDS011;26164;51.138;16.952;2024-01-16T00:47:57;6.38;;;2.33;;
40459;SDS011;26164;51.138;16.952;2024-01-16T00:51:08;5.75;;;1.58;;
40459;SDS011;26164;51.138;16.952;2024-01-16T01:10:57;6.68;;;2.20;;
40459;SDS011;26164;51.138;16.952;2024-01-16T01:13:49;6.10;;;1.67;;
40459;SDS011;26164;51.138;16.952;2024-01-16T01:28:56;8.60;;;2.05;;
40459;SDS011;26164;51.138;16.952;2024-01-16T01:35:13;2.72;;;1.15;;
40459;SDS011;26164;51.138;16.952;2024-01-16T01:38:29;8.60;;;2.72;;
40459;SDS011;26164;51.138;16.952;2024-01-16T01:41:11;7.10;;;2.75;;
40459;SDS011;26164;51.138;16.952;2024-01-16T01:43:55;11.13;;;3.08;;
40459;SDS011;26164;51.138;16.952;2024-01-16T01:46:37;11.23;;;2.63;;
40459;SDS011;26164;51.138;16.952;2024-01-16T01:49:25;5.70;;;2.33;;
40459;SDS011;26164;51.138;16.952;2024-01-16T02:03:19;6.80;;;2.33;;
40459;SDS011;26164;51.138;16.952;2024-01-16T02:06:04;12.32;;;2.80;;
40459;SDS011;26164;51.138;16.952;2024-01-16T02:08:49;15.35;;;3.05;;
40459;SDS011;26164;51.138;16.952;2024-01-16T02:11:31;12.55;;;2.95;;
40459;SDS011;26164;51.138;16.952;2024-01-16T02:14:17;7.97;;;2.13;;
40459;SDS011;26164;51.138;16.952;2024-01-16T02:17:23;8.23;;;2.92;;
40459;SDS011;26164;51.138;16.952;2024-01-16T02:20:10;17.48;;;3.50;;
40459;SDS011;26164;51.138;16.952;2024-01-16T02:22:54;10.88;;;2.95;;
40459;SDS011;26164;51.138;16.952;2024-01-16T02:25:47;13.02;;;3.65;;
40459;SDS011;26164;51.138;16.952;2024-01-16T02:28:48;10.05;;;3.65;;
40459;SDS011;26164;51.138;16.952;2024-01-16T02:31:34;10.30;;;2.95;;
40459;SDS011;26164;51.138;16.952;2024-01-16T02:34:29;10.40;;;3.40;;
40459;SDS011;26164;51.138;16.952;2024-01-16T02:37:14;13.88;;;3.80;;
40459;SDS011;26164;51.138;16.952;2024-01-16T02:39:57;12.68;;;3.70;;
40459;SDS011;26164;51.138;16.952;2024-01-16T02:42:41;9.73;;;3.67;;
40459;SDS011;26164;51.138;16.952;2024-01-16T02:45:25;8.65;;;3.03;;
40459;SDS011;26164;51.138;16.952;2024-01-16T02:48:08;11.05;;;3.65;;
40459;SDS011;26164;51.138;16.952;2024-01-16T02:50:49;9.02;;;3.22;;
40459;SDS011;26164;51.138;16.952;2024-01-16T02:53:18;12.65;;;3.80;;
40459;SDS011;26164;51.138;16.952;2024-01-16T02:55:46;21.10;;;5.32;;
40459;SDS011;26164;51.138;16.952;2024-01-16T02:58:42;13.68;;;7.28;;
40459;SDS011;26164;51.138;16.952;2024-01-16T03:01:27;19.63;;;8.05;;
40459;SDS011;26164;51.138;16.952;2024-01-16T03:04:13;21.88;;;8.13;;
40459;SDS011;26164;51.138;16.952;2024-01-16T03:06:55;17.30;;;6.45;;
40459;SDS011;26164;51.138;16.952;2024-01-16T03:09:47;26.38;;;9.00;;
40459;SDS011;26164;51.138;16.952;2024-01-16T03:12:31;21.02;;;7.90;;
40459;SDS011;26164;51.138;16.952;2024-01-16T03:15:24;21.80;;;6.70;;
40459;SDS011;26164;51.138;16.952;2024-01-16T03:18:06;7.03;;;2.60;;
40459;SDS011;26164;51.138;16.952;2024-01-16T03:20:49;13.85;;;5.32;;
40459;SDS011;26164;51.138;16.952;2024-01-16T03:23:30;9.48;;;5.03;;
40459;SDS011;26164;51.138;16.952;2024-01-16T03:26:12;13.05;;;5.15;;
40459;SDS011;26164;51.138;16.952;2024-01-16T03:28:55;16.83;;;4.20;;
40459;SDS011;26164;51.138;16.952;2024-01-16T03:31:37;8.18;;;2.55;;
40459;SDS011;26164;51.138;16.952;2024-01-16T03:34:22;6.67;;;3.10;;
40459;SDS011;26164;51.138;16.952;2024-01-16T03:39:49;8.30;;;3.78;;
40459;SDS011;26164;51.138;16.952;2024-01-16T03:42:30;11.05;;;4.38;;
40459;SDS011;26164;51.138;16.952;2024-01-16T03:45:13;12.20;;;4.28;;
40459;SDS011;26164;51.138;16.952;2024-01-16T03:47:40;10.48;;;4.53;;
40459;SDS011;26164;51.138;16.952;2024-01-16T03:50:21;13.63;;;6.25;;
40459;SDS011;26164;51.138;16.952;2024-01-16T03:53:06;17.75;;;6.85;;
40459;SDS011;26164;51.138;16.952;2024-01-16T03:55:47;10.88;;;5.32;;
40459;SDS011;26164;51.138;16.952;2024-01-16T03:58:35;10.80;;;3.70;;
40459;SDS011;26164;51.138;16.952;2024-01-16T04:01:17;9.32;;;3.38;;
40459;SDS011;26164;51.138;16.952;2024-01-16T04:04:17;8.30;;;2.55;;
40459;SDS011;26164;51.138;16.952;2024-01-16T04:07:08;8.88;;;3.45;;
40459;SDS011;26164;51.138;16.952;2024-01-16T04:09:53;10.95;;;4.20;;
40459;SDS011;26164;51.138;16.952;2024-01-16T04:12:39;8.00;;;3.97;;
40459;SDS011;26164;51.138;16.952;2024-01-16T04:15:31;10.20;;;4.93;;
40459;SDS011;26164;51.138;16.952;2024-01-16T04:18:23;10.93;;;4.75;;
40459;SDS011;26164;51.138;16.952;2024-01-16T04:42:27;8.80;;;2.85;;
40459;SDS011;26164;51.138;16.952;2024-01-16T04:45:49;16.38;;;6.88;;
40459;SDS011;26164;51.138;16.952;2024-01-16T04:48:48;14.88;;;5.32;;
40459;SDS011;26164;51.138;16.952;2024-01-16T04:55:59;8.93;;;3.70;;
40459;SDS011;26164;51.138;16.952;2024-01-16T04:58:43;8.88;;;2.83;;
40459;SDS011;26164;51.138;16.952;2024-01-16T05:01:48;9.63;;;3.25;;
40459;SDS011;26164;51.138;16.952;2024-01-16T05:04:36;12.82;;;3.63;;
40459;SDS011;26164;51.138;16.952;2024-01-16T05:07:33;12.30;;;3.45;;
40459;SDS011;26164;51.138;16.952;2024-01-16T05:10:16;10.02;;;3.13;;
40459;SDS011;26164;51.138;16.952;2024-01-16T05:13:28;7.65;;;2.88;;
40459;SDS011;26164;51.138;16.952;2024-01-16T05:16:20;13.98;;;3.38;;
40459;SDS011;26164;51.138;16.952;2024-01-16T05:19:23;10.55;;;3.97;;
40459;SDS011;26164;51.138;16.952;2024-01-16T05:22:45;8.75;;;3.53;;
40459;SDS011;26164;51.138;16.952;2024-01-16T05:32:14;16.73;;;4.07;;
40459;SDS011;26164;51.138;16.952;2024-01-16T05:34:55;10.65;;;3.15;;
40459;SDS011;26164;51.138;16.952;2024-01-16T05:40:22;8.82;;;3.65;;
40459;SDS011;26164;51.138;16.952;2024-01-16T05:43:02;11.38;;;3.55;;
40459;SDS011;26164;51.138;16.952;2024-01-16T05:45:40;11.02;;;3.65;;
40459;SDS011;26164;51.138;16.952;2024-01-16T05:48:36;11.38;;;4.47;;
40459;SDS011;26164;51.138;16.952;2024-01-16T05:51:03;12.45;;;3.80;;
40459;SDS011;26164;51.138;16.952;2024-01-16T05:53:47;15.00;;;4.13;;
40459;SDS011;26164;51.138;16.952;2024-01-16T05:56:18;13.35;;;4.20;;
40459;SDS011;26164;51.138;16.952;2024-01-16T05:58:53;20.83;;;6.18;;
40459;SDS011;26164;51.138;16.952;2024-01-16T06:01:20;10.05;;;3.90;;
40459;SDS011;26164;51.138;16.952;2024-01-16T06:03:46;19.00;;;6.32;;
40459;SDS011;26164;51.138;16.952;2024-01-16T06:06:15;17.58;;;6.15;;
40459;SDS011;26164;51.138;16.952;2024-01-16T06:08:45;13.20;;;4.40;;
40459;SDS011;26164;51.138;16.952;2024-01-16T06:11:12;5.47;;;1.70;;
40459;SDS011;26164;51.138;16.952;2024-01-16T06:13:38;4.95;;;2.08;;
40459;SDS011;26164;51.138;16.952;2024-01-16T06:16:10;3.35;;;1.52;;
40459;SDS011;26164;51.138;16.952;2024-01-16T06:18:37;8.32;;;2.28;;
40459;SDS011;26164;51.138;16.952;2024-01-16T06:21:04;8.60;;;1.67;;
40459;SDS011;26164;51.138;16.952;2024-01-16T06:23:32;4.82;;;2.00;;
40459;SDS011;26164;51.138;16.952;2024-01-16T06:26:00;5.72;;;1.85;;
40459;SDS011;26164;51.138;16.952;2024-01-16T06:28:29;8.23;;;2.20;;
40459;SDS011;26164;51.138;16.952;2024-01-16T06:30:56;9.10;;;1.88;;
40459;SDS011;26164;51.138;16.952;2024-01-16T06:33:22;9.93;;;2.50;;
40459;SDS011;26164;51.138;16.952;2024-01-16T06:35:51;10.90;;;2.85;;
40459;SDS011;26164;51.138;16.952;2024-01-16T06:38:20;5.65;;;1.77;;
40459;SDS011;26164;51.138;16.952;2024-01-16T06:41:03;34.65;;;12.60;;
40459;SDS011;26164;51.138;16.952;2024-01-16T06:43:33;9.57;;;2.53;;
40459;SDS011;26164;51.138;16.952;2024-01-16T06:46:00;6.47;;;2.60;;
40459;SDS011;26164;51.138;16.952;2024-01-16T07:09:37;12.88;;;4.13;;
40459;SDS011;26164;51.138;16.952;2024-01-16T07:25:00;9.48;;;4.10;;
40459;SDS011;26164;51.138;16.952;2024-01-16T09:02:31;7.63;;;2.30;;
40459;SDS011;26164;51.138;16.952;2024-01-16T09:26:07;7.18;;;3.00;;
40459;SDS011;26164;51.138;16.952;2024-01-16T09:29:14;8.90;;;3.38;;
40459;SDS011;26164;51.138;16.952;2024-01-16T09:32:16;5.15;;;2.80;;
40459;SDS011;26164;51.138;16.952;2024-01-16T09:35:16;7.03;;;2.95;;
40459;SDS011;26164;51.138;16.952;2024-01-16T09:37:58;7.25;;;2.80;;
40459;SDS011;26164;51.138;16.952;2024-01-16T09:40:42;8.25;;;2.75;;
40459;SDS011;26164;51.138;16.952;2024-01-16T09:43:18;5.78;;;2.38;;
40459;SDS011;26164;51.138;16.952;2024-01-16T09:45:45;8.32;;;2.63;;
40459;SDS011;26164;51.138;16.952;2024-01-16T09:48:21;5.68;;;2.33;;
40459;SDS011;26164;51.138;16.952;2024-01-16T09:50:49;9.88;;;2.30;;
40459;SDS011;26164;51.138;16.952;2024-01-16T09:53:33;8.70;;;2.28;;
40459;SDS011;26164;51.138;16.952;2024-01-16T09:56:18;7.28;;;2.75;;
40459;SDS011;26164;51.138;16.952;2024-01-16T09:58:49;7.57;;;2.88;;
40459;SDS011;26164;51.138;16.952;2024-01-16T10:01:35;6.88;;;2.72;;
40459;SDS011;26164;51.138;16.952;2024-01-16T10:04:04;8.82;;;3.13;;
40459;SDS011;26164;51.138;16.952;2024-01-16T10:06:37;8.70;;;2.80;;
40459;SDS011;26164;51.138;16.952;2024-01-16T10:09:23;9.65;;;2.95;;
40459;SDS011;26164;51.138;16.952;2024-01-16T10:11:50;5.82;;;2.92;;
40459;SDS011;26164;51.138;16.952;2024-01-16T10:14:17;9.25;;;2.42;;
40459;SDS011;26164;51.138;16.952;2024-01-16T10:16:57;5.60;;;2.45;;
40459;SDS011;26164;51.138;16.952;2024-01-16T10:19:56;6.55;;;1.88;;
40459;SDS011;26164;51.138;16.952;2024-01-16T10:22:28;8.82;;;3.47;;
40459;SDS011;26164;51.138;16.952;2024-01-16T10:25:07;7.07;;;3.10;;
40459;SDS011;26164;51.138;16.952;2024-01-16T10:28:19;16.10;;;3.45;;
40459;SDS011;26164;51.138;16.952;2024-01-16T10:30:47;8.15;;;3.28;;
40459;SDS011;26164;51.138;16.952;2024-01-16T10:33:14;8.93;;;3.00;;
40459;SDS011;26164;51.138;16.952;2024-01-16T10:35:45;6.72;;;2.70;;
40459;SDS011;26164;51.138;16.952;2024-01-16T10:39:03;6.07;;;2.80;;
40459;SDS011;26164;51.138;16.952;2024-01-16T10:41:30;6.53;;;3.28;;
40459;SDS011;26164;51.138;16.952;2024-01-16T10:44:05;6.05;;;2.58;;
40459;SDS011;26164;51.138;16.952;2024-01-16T10:46:35;6.18;;;2.25;;
40459;SDS011;26164;51.138;16.952;2024-01-16T10:49:20;5.28;;;2.63;;
40459;SDS011;26164;51.138;16.952;2024-01-16T10:52:06;8.43;;;3.17;;
40459;SDS011;26164;51.138;16.952;2024-01-16T10:54:47;8.75;;;2.90;;
40459;SDS011;26164;51.138;16.952;2024-01-16T10:57:52;6.90;;;2.55;;
40459;SDS011;26164;51.138;16.952;2024-01-16T11:00:22;7.90;;;3.15;;
40459;SDS011;26164;51.138;16.952;2024-01-16T11:03:01;9.07;;;3.03;;
40459;SDS011;26164;51.138;16.952;2024-01-16T11:05:37;7.70;;;3.53;;
40459;SDS011;26164;51.138;16.952;2024-01-16T11:08:06;6.75;;;2.72;;
40459;SDS011;26164;51.138;16.952;2024-01-16T11:10:58;7.18;;;2.50;;
40459;SDS011;26164;51.138;16.952;2024-01-16T11:13:47;9.23;;;2.85;;
40459;SDS011;26164;51.138;16.952;2024-01-16T11:19:28;10.63;;;3.70;;
40459;SDS011;26164;51.138;16.952;2024-01-16T11:22:26;10.10;;;3.50;;
40459;SDS011;26164;51.138;16.952;2024-01-16T11:25:13;5.93;;;2.83;;
40459;SDS011;26164;51.138;16.952;2024-01-16T11:28:12;6.93;;;3.20;;
40459;SDS011;26164;51.138;16.952;2024-01-16T11:30:43;9.13;;;3.28;;
40459;SDS011;26164;51.138;16.952;2024-01-16T11:36:41;7.22;;;2.40;;
40459;SDS011;26164;51.138;16.952;2024-01-16T11:39:18;5.65;;;2.55;;
40459;SDS011;26164;51.138;16.952;2024-01-16T11:41:51;6.15;;;2.85;;
40459;SDS011;26164;51.138;16.952;2024-01-16T11:47:08;7.43;;;3.00;;
40459;SDS011;26164;51.138;16.952;2024-01-16T11:49:36;8.10;;;3.00;;
40459;SDS011;26164;51.138;16.952;2024-01-16T11:52:07;13.38;;;3.45;;
40459;SDS011;26164;51.138;16.952;2024-01-16T11:54:37;8.15;;;3.90;;
40459;SDS011;26164;51.138;16.952;2024-01-16T11:57:26;12.45;;;3.80;;
40459;SDS011;26164;51.138;16.952;2024-01-16T12:00:19;11.65;;;3.30;;
40459;SDS011;26164;51.138;16.952;2024-01-16T12:03:02;11.82;;;3.95;;
40459;SDS011;26164;51.138;16.952;2024-01-16T12:05:57;9.13;;;3.35;;
40459;SDS011;26164;51.138;16.952;2024-01-16T12:11:55;13.25;;;3.78;;
40459;SDS011;26164;51.138;16.952;2024-01-16T12:14:46;12.48;;;4.30;;
40459;SDS011;26164;51.138;16.952;2024-01-16T12:17:28;9.32;;;4.05;;
40459;SDS011;26164;51.138;16.952;2024-01-16T12:19:59;11.38;;;4.15;;
40459;SDS011;26164;51.138;16.952;2024-01-16T12:22:43;7.57;;;3.30;;
40459;SDS011;26164;51.138;16.952;2024-01-16T12:25:18;9.60;;;3.40;;
40459;SDS011;26164;51.138;16.952;2024-01-16T12:28:03;13.60;;;4.55;;
40459;SDS011;26164;51.138;16.952;2024-01-16T12:30:38;14.57;;;5.05;;
40459;SDS011;26164;51.138;16.952;2024-01-16T12:33:08;11.15;;;4.97;;
40459;SDS011;26164;51.138;16.952;2024-01-16T12:36:00;13.68;;;6.10;;
40459;SDS011;26164;51.138;16.952;2024-01-16T12:38:30;23.15;;;6.28;;
40459;SDS011;26164;51.138;16.952;2024-01-16T12:40:58;12.50;;;5.50;;
40459;SDS011;26164;51.138;16.952;2024-01-16T12:43:48;10.30;;;5.40;;
40459;SDS011;26164;51.138;16.952;2024-01-16T12:46:32;8.45;;;4.20;;
40459;SDS011;26164;51.138;16.952;2024-01-16T12:52:20;9.30;;;4.50;;
40459;SDS011;26164;51.138;16.952;2024-01-16T12:55:17;7.68;;;3.53;;
40459;SDS011;26164;51.138;16.952;2024-01-16T12:58:36;12.50;;;4.38;;
40459;SDS011;26164;51.138;16.952;2024-01-16T13:01:29;7.15;;;3.20;;
40459;SDS011;26164;51.138;16.952;2024-01-16T13:04:12;9.75;;;5.25;;
40459;SDS011;26164;51.138;16.952;2024-01-16T13:07:02;11.13;;;3.27;;
40459;SDS011;26164;51.138;16.952;2024-01-16T13:09:45;10.85;;;3.88;;
40459;SDS011;26164;51.138;16.952;2024-01-16T13:12:25;9.20;;;2.85;;
40459;SDS011;26164;51.138;16.952;2024-01-16T13:15:03;4.93;;;2.58;;
40459;SDS011;26164;51.138;16.952;2024-01-16T13:17:36;9.63;;;3.53;;
40459;SDS011;26164;51.138;16.952;2024-01-16T13:20:04;7.80;;;2.42;;
40459;SDS011;26164;51.138;16.952;2024-01-16T13:22:41;7.55;;;2.58;;
40459;SDS011;26164;51.138;16.952;2024-01-16T13:25:19;9.88;;;3.55;;
40459;SDS011;26164;51.138;16.952;2024-01-16T13:27:46;8.45;;;3.03;;
40459;SDS011;26164;51.138;16.952;2024-01-16T13:30:16;9.32;;;3.00;;
40459;SDS011;26164;51.138;16.952;2024-01-16T13:32:43;9.45;;;3.38;;
40459;SDS011;26164;51.138;16.952;2024-01-16T13:35:13;7.75;;;3.00;;
40459;SDS011;26164;51.138;16.952;2024-01-16T13:37:42;10.93;;;2.90;;
40459;SDS011;26164;51.138;16.952;2024-01-16T13:40:09;9.93;;;3.00;;
40459;SDS011;26164;51.138;16.952;2024-01-16T13:42:38;7.68;;;3.00;;
40459;SDS011;26164;51.138;16.952;2024-01-16T13:45:09;6.47;;;2.55;;
40459;SDS011;26164;51.138;16.952;2024-01-16T13:47:46;8.23;;;3.15;;
40459;SDS011;26164;51.138;16.952;2024-01-16T13:50:28;10.05;;;3.40;;
40459;SDS011;26164;51.138;16.952;2024-01-16T13:52:55;8.70;;;3.03;;
40459;SDS011;26164;51.138;16.952;2024-01-16T13:55:51;9.63;;;3.28;;
40459;SDS011;26164;51.138;16.952;2024-01-16T13:59:57;13.40;;;4.63;;
40459;SDS011;26164;51.138;16.952;2024-01-16T14:03:45;12.13;;;5.18;;
40459;SDS011;26164;51.138;16.952;2024-01-16T14:07:03;12.82;;;4.55;;
40459;SDS011;26164;51.138;16.952;2024-01-16T14:12:57;14.25;;;5.47;;
40459;SDS011;26164;51.138;16.952;2024-01-16T14:21:56;19.60;;;6.63;;
40459;SDS011;26164;51.138;16.952;2024-01-16T14:34:11;15.32;;;8.32;;
40459;SDS011;26164;51.138;16.952;2024-01-16T14:37:14;24.05;;;8.82;;
40459;SDS011;26164;51.138;16.952;2024-01-16T15:03:59;14.25;;;6.40;;
40459;SDS011;26164;51.138;16.952;2024-01-16T15:06:48;12.25;;;5.45;;
40459;SDS011;26164;51.138;16.952;2024-01-16T15:09:31;22.30;;;6.68;;
40459;SDS011;26164;51.138;16.952;2024-01-16T15:12:15;15.98;;;7.22;;
40459;SDS011;26164;51.138;16.952;2024-01-16T15:14:57;14.93;;;7.32;;
40459;SDS011;26164;51.138;16.952;2024-01-16T15:17:42;20.38;;;7.53;;
40459;SDS011;26164;51.138;16.952;2024-01-16T15:20:25;24.00;;;8.10;;
40459;SDS011;26164;51.138;16.952;2024-01-16T15:26:34;24.58;;;9.10;;
40459;SDS011;26164;51.138;16.952;2024-01-16T15:29:23;22.40;;;9.80;;
40459;SDS011;26164;51.138;16.952;2024-01-16T15:32:10;24.70;;;8.25;;
40459;SDS011;26164;51.138;16.952;2024-01-16T15:38:41;26.20;;;10.02;;
40459;SDS011;26164;51.138;16.952;2024-01-16T15:41:31;20.05;;;8.88;;
40459;SDS011;26164;51.138;16.952;2024-01-16T16:09:34;27.23;;;11.35;;
40459;SDS011;26164;51.138;16.952;2024-01-16T16:13:43;21.58;;;10.23;;
40459;SDS011;26164;51.138;16.952;2024-01-16T16:19:27;29.27;;;12.13;;
40459;SDS011;26164;51.138;16.952;2024-01-16T16:22:04;30.27;;;13.95;;
40459;SDS011;26164;51.138;16.952;2024-01-16T16:25:23;24.85;;;11.02;;
40459;SDS011;26164;51.138;16.952;2024-01-16T16:28:07;25.38;;;10.65;;
40459;SDS011;26164;51.138;16.952;2024-01-16T16:33:53;22.45;;;9.18;;
40459;SDS011;26164;51.138;16.952;2024-01-16T16:42:32;25.73;;;10.70;;
40459;SDS011;26164;51.138;16.952;2024-01-16T16:45:58;27.02;;;11.27;;
40459;SDS011;26164;51.138;16.952;2024-01-16T16:52:03;35.47;;;13.70;;
40459;SDS011;26164;51.138;16.952;2024-01-16T16:54:48;34.05;;;13.57;;
40459;SDS011;26164;51.138;16.952;2024-01-16T16:57:36;40.47;;;15.13;;
40459;SDS011;26164;51.138;16.952;2024-01-16T17:00:22;40.67;;;17.50;;
40459;SDS011;26164;51.138;16.952;2024-01-16T17:03:04;44.38;;;16.60;;
40459;SDS011;26164;51.138;16.952;2024-01-16T17:05:43;38.28;;;15.85;;
40459;SDS011;26164;51.138;16.952;2024-01-16T17:08:16;41.30;;;16.52;;
40459;SDS011;26164;51.138;16.952;2024-01-16T17:11:18;41.00;;;17.05;;
40459;SDS011;26164;51.138;16.952;2024-01-16T17:13:50;42.22;;;16.02;;
40459;SDS011;26164;51.138;16.952;2024-01-16T17:16:20;33.58;;;15.52;;
40459;SDS011;26164;51.138;16.952;2024-01-16T17:19:11;40.95;;;15.02;;
40459;SDS011;26164;51.138;16.952;2024-01-16T17:21:39;39.10;;;15.10;;
40459;SDS011;26164;51.138;16.952;2024-01-16T17:24:10;41.97;;;15.55;;
40459;SDS011;26164;51.138;16.952;2024-01-16T17:26:38;39.80;;;15.52;;
40459;SDS011;26164;51.138;16.952;2024-01-16T17:29:07;37.20;;;15.85;;
40459;SDS011;26164;51.138;16.952;2024-01-16T17:31:35;35.47;;;15.23;;
40459;SDS011;26164;51.138;16.952;2024-01-16T17:34:04;36.08;;;14.88;;
40459;SDS011;26164;51.138;16.952;2024-01-16T17:36:31;38.55;;;15.20;;
40459;SDS011;26164;51.138;16.952;2024-01-16T17:39:02;40.03;;;14.98;;
40459;SDS011;26164;51.138;16.952;2024-01-16T17:41:36;34.92;;;13.07;;
40459;SDS011;26164;51.138;16.952;2024-01-16T17:44:19;41.78;;;15.98;;
40459;SDS011;26164;51.138;16.952;2024-01-16T17:49:46;42.55;;;15.63;;
40459;SDS011;26164;51.138;16.952;2024-01-16T17:56:31;43.80;;;16.00;;
40459;SDS011;26164;51.138;16.952;2024-01-16T18:02:02;42.00;;;17.15;;
40459;SDS011;26164;51.138;16.952;2024-01-16T18:04:49;44.90;;;16.65;;
40459;SDS011;26164;51.138;16.952;2024-01-16T18:07:42;41.80;;;16.30;;
40459;SDS011;26164;51.138;16.952;2024-01-16T18:18:38;39.65;;;17.73;;
40459;SDS011;26164;51.138;16.952;2024-01-16T18:24:25;47.17;;;17.90;;
40459;SDS011;26164;51.138;16.952;2024-01-16T18:27:10;49.70;;;18.65;;
40459;SDS011;26164;51.138;16.952;2024-01-16T18:29:56;50.55;;;19.33;;
40459;SDS011;26164;51.138;16.952;2024-01-16T18:32:34;52.42;;;22.02;;
40459;SDS011;26164;51.138;16.952;2024-01-16T18:35:00;57.45;;;21.58;;
40459;SDS011;26164;51.138;16.952;2024-01-16T18:37:54;63.47;;;21.98;;
40459;SDS011;26164;51.138;16.952;2024-01-16T18:40:58;57.33;;;21.38;;
40459;SDS011;26164;51.138;16.952;2024-01-16T18:47:17;58.58;;;22.13;;
40459;SDS011;26164;51.138;16.952;2024-01-16T18:50:03;57.92;;;21.60;;
40459;SDS011;26164;51.138;16.952;2024-01-16T18:56:19;61.78;;;21.65;;
40459;SDS011;26164;51.138;16.952;2024-01-16T18:59:17;54.60;;;19.40;;
40459;SDS011;26164;51.138;16.952;2024-01-16T19:02:05;56.47;;;20.63;;
40459;SDS011;26164;51.138;16.952;2024-01-16T19:04:55;53.55;;;19.90;;
40459;SDS011;26164;51.138;16.952;2024-01-16T19:07:55;56.80;;;20.65;;
40459;SDS011;26164;51.138;16.952;2024-01-16T19:10:36;56.67;;;20.65;;
40459;SDS011;26164;51.138;16.952;2024-01-16T19:13:21;52.10;;;19.88;;
40459;SDS011;26164;51.138;16.952;2024-01-16T19:15:56;52.92;;;19.90;;
40459;SDS011;26164;51.138;16.952;2024-01-16T19:18:24;56.70;;;21.02;;
40459;SDS011;26164;51.138;16.952;2024-01-16T19:31:20;53.70;;;19.30;;
40459;SDS011;26164;51.138;16.952;2024-01-16T19:34:03;52.20;;;19.77;;
40459;SDS011;26164;51.138;16.952;2024-01-16T19:36:48;49.65;;;19.98;;
40459;SDS011;26164;51.138;16.952;2024-01-16T19:39:33;53.25;;;18.98;;
40459;SDS011;26164;51.138;16.952;2024-01-16T19:42:17;57.60;;;19.13;;
40459;SDS011;26164;51.138;16.952;2024-01-16T19:44:47;50.70;;;19.20;;
40459;SDS011;26164;51.138;16.952;2024-01-16T19:47:14;50.03;;;17.98;;
40459;SDS011;26164;51.138;16.952;2024-01-16T19:49:55;48.72;;;17.83;;
40459;SDS011;26164;51.138;16.952;2024-01-16T19:52:26;43.45;;;17.45;;
40459;SDS011;26164;51.138;16.952;2024-01-16T19:55:02;47.72;;;17.45;;
40459;SDS011;26164;51.138;16.952;2024-01-16T19:57:51;42.85;;;15.63;;
40459;SDS011;26164;51.138;16.952;2024-01-16T20:00:38;40.83;;;15.55;;
40459;SDS011;26164;51.138;16.952;2024-01-16T20:03:24;41.03;;;15.73;;
40459;SDS011;26164;51.138;16.952;2024-01-16T20:06:10;40.63;;;15.57;;
40459;SDS011;26164;51.138;16.952;2024-01-16T20:08:53;45.40;;;14.98;;
40459;SDS011;26164;51.138;16.952;2024-01-16T20:11:47;38.80;;;14.15;;
40459;SDS011;26164;51.138;16.952;2024-01-16T20:14:18;41.93;;;13.53;;
40459;SDS011;26164;51.138;16.952;2024-01-16T20:16:48;36.05;;;13.70;;
40459;SDS011;26164;51.138;16.952;2024-01-16T20:19:14;35.55;;;13.93;;
40459;SDS011;26164;51.138;16.952;2024-01-16T20:21:44;38.15;;;14.57;;
40459;SDS011;26164;51.138;16.952;2024-01-16T20:24:30;43.47;;;14.85;;
